sensor_id;sensor_type;location;lat;lon;timestamp;P1;durP1;ratioP1;P2;durP2;ratioP2
18820;SDS011;9539;59.332;18.034;2023-08-30T00:00:26;7.22;;;2.90;;
18820;SDS011;9539;59.332;18.034;2023-08-30T00:02:48;8.27;;;2.95;;
18820;SDS011;9539;59.332;18.034;2023-08-30T00:05:11;5.90;;;2.80;;
18820;SDS011;9539;59.332;18.034;2023-08-30T00:07:33;5.25;;;2.85;;
18820;SDS011;9539;59.332;18.034;2023-08-30T00:09:54;7.57;;;3.17;;
18820;SDS011;9539;59.332;18.034;2023-08-30T00:12:19;5.50;;;2.80;;
18820;SDS011;9539;59.332;18.034;2023-08-30T00:14:41;5.88;;;2.60;;
18820;SDS011;9539;59.332;18.034;2023-08-30T00:17:03;6.40;;;3.08;;
18820;SDS011;9539;59.332;18.034;2023-08-30T00:19:25;4.50;;;2.70;;
18820;SDS011;9539;59.332;18.034;2023-08-30T00:21:47;6.30;;;3.00;;
18820;SDS011;9539;59.332;18.034;2023-08-30T00:24:09;5.10;;;2.80;;
18820;SDS011;9539;59.332;18.034;2023-08-30T00:26:31;7.55;;;2.67;;
18820;SDS011;9539;59.332;18.034;2023-08-30T00:28:54;6.65;;;2.67;;
18820;SDS011;9539;59.332;18.034;2023-08-30T00:31:16;3.63;;;2.40;;
18820;SDS011;9539;59.332;18.034;2023-08-30T00:33:38;6.75;;;2.60;;
18820;SDS011;9539;59.332;18.034;2023-08-30T00:36:00;21.67;;;4.03;;
18820;SDS011;9539;59.332;18.034;2023-08-30T00:38:22;4.85;;;2.60;;
18820;SDS011;9539;59.332;18.034;2023-08-30T00:40:44;8.43;;;2.95;;
18820;SDS011;9539;59.332;18.034;2023-08-30T00:43:06;5.25;;;2.60;;
18820;SDS011;9539;59.332;18.034;2023-08-30T00:45:30;12.70;;;3.03;;
18820;SDS011;9539;59.332;18.034;2023-08-30T00:47:52;8.15;;;2.70;;
18820;SDS011;9539;59.332;18.034;2023-08-30T00:50:13;3.78;;;2.40;;
18820;SDS011;9539;59.332;18.034;2023-08-30T00:52:37;5.13;;;2.75;;
18820;SDS011;9539;59.332;18.034;2023-08-30T00:54:59;5.13;;;2.63;;
18820;SDS011;9539;59.332;18.034;2023-08-30T00:57:20;4.05;;;2.60;;
18820;SDS011;9539;59.332;18.034;2023-08-30T00:59:42;3.13;;;2.40;;
18820;SDS011;9539;59.332;18.034;2023-08-30T01:02:06;5.75;;;2.60;;
18820;SDS011;9539;59.332;18.034;2023-08-30T01:04:28;5.82;;;2.40;;
18820;SDS011;9539;59.332;18.034;2023-08-30T01:06:50;6.32;;;2.58;;
18820;SDS011;9539;59.332;18.034;2023-08-30T01:09:12;3.92;;;2.40;;
18820;SDS011;9539;59.332;18.034;2023-08-30T01:11:36;4.85;;;2.47;;
18820;SDS011;9539;59.332;18.034;2023-08-30T01:14:03;5.15;;;2.50;;
18820;SDS011;9539;59.332;18.034;2023-08-30T01:16:28;8.25;;;2.50;;
18820;SDS011;9539;59.332;18.034;2023-08-30T01:18:53;4.45;;;2.45;;
18820;SDS011;9539;59.332;18.034;2023-08-30T01:21:29;5.47;;;2.33;;
18820;SDS011;9539;59.332;18.034;2023-08-30T01:24:05;5.78;;;2.30;;
18820;SDS011;9539;59.332;18.034;2023-08-30T01:26:35;4.25;;;2.20;;
18820;SDS011;9539;59.332;18.034;2023-08-30T01:29:05;4.63;;;2.35;;
18820;SDS011;9539;59.332;18.034;2023-08-30T01:31:30;4.20;;;2.13;;
18820;SDS011;9539;59.332;18.034;2023-08-30T01:33:54;7.78;;;2.63;;
18820;SDS011;9539;59.332;18.034;2023-08-30T01:36:17;5.63;;;2.67;;
18820;SDS011;9539;59.332;18.034;2023-08-30T01:38:39;5.13;;;2.40;;
18820;SDS011;9539;59.332;18.034;2023-08-30T01:41:02;6.75;;;2.65;;
18820;SDS011;9539;59.332;18.034;2023-08-30T01:43:26;6.95;;;2.85;;
18820;SDS011;9539;59.332;18.034;2023-08-30T01:45:51;8.32;;;2.90;;
18820;SDS011;9539;59.332;18.034;2023-08-30T01:48:13;6.60;;;3.38;;
18820;SDS011;9539;59.332;18.034;2023-08-30T01:50:36;7.15;;;3.25;;
18820;SDS011;9539;59.332;18.034;2023-08-30T01:52:59;5.47;;;3.63;;
18820;SDS011;9539;59.332;18.034;2023-08-30T01:55:22;4.78;;;3.67;;
18820;SDS011;9539;59.332;18.034;2023-08-30T01:57:44;10.18;;;4.40;;
18820;SDS011;9539;59.332;18.034;2023-08-30T02:00:06;8.80;;;4.53;;
18820;SDS011;9539;59.332;18.034;2023-08-30T02:02:31;8.27;;;4.20;;
18820;SDS011;9539;59.332;18.034;2023-08-30T02:04:53;13.82;;;4.95;;
18820;SDS011;9539;59.332;18.034;2023-08-30T02:07:16;10.38;;;5.40;;
18820;SDS011;9539;59.332;18.034;2023-08-30T02:09:42;8.82;;;4.75;;
18820;SDS011;9539;59.332;18.034;2023-08-30T02:12:12;12.75;;;5.35;;
18820;SDS011;9539;59.332;18.034;2023-08-30T02:14:36;6.82;;;5.10;;
18820;SDS011;9539;59.332;18.034;2023-08-30T02:16:59;14.20;;;5.47;;
18820;SDS011;9539;59.332;18.034;2023-08-30T02:19:24;11.32;;;5.30;;
18820;SDS011;9539;59.332;18.034;2023-08-30T02:21:46;10.65;;;5.65;;
18820;SDS011;9539;59.332;18.034;2023-08-30T02:24:08;8.18;;;5.47;;
18820;SDS011;9539;59.332;18.034;2023-08-30T02:26:30;11.25;;;5.63;;
18820;SDS011;9539;59.332;18.034;2023-08-30T02:28:52;12.93;;;6.00;;
18820;SDS011;9539;59.332;18.034;2023-08-30T02:31:14;9.75;;;4.95;;
18820;SDS011;9539;59.332;18.034;2023-08-30T02:33:36;11.40;;;6.00;;
18820;SDS011;9539;59.332;18.034;2023-08-30T02:35:59;10.82;;;5.35;;
18820;SDS011;9539;59.332;18.034;2023-08-30T02:38:21;9.85;;;5.15;;
18820;SDS011;9539;59.332;18.034;2023-08-30T02:40:43;7.32;;;5.15;;
18820;SDS011;9539;59.332;18.034;2023-08-30T02:43:05;9.25;;;5.63;;
18820;SDS011;9539;59.332;18.034;2023-08-30T02:45:27;10.68;;;5.55;;
18820;SDS011;9539;59.332;18.034;2023-08-30T02:47:49;11.50;;;5.30;;
18820;SDS011;9539;59.332;18.034;2023-08-30T02:50:11;10.75;;;5.32;;
18820;SDS011;9539;59.332;18.034;2023-08-30T02:52:34;10.18;;;5.13;;
18820;SDS011;9539;59.332;18.034;2023-08-30T02:54:56;8.15;;;4.80;;
18820;SDS011;9539;59.332;18.034;2023-08-30T02:57:18;8.32;;;4.70;;
18820;SDS011;9539;59.332;18.034;2023-08-30T02:59:40;8.95;;;4.97;;
18820;SDS011;9539;59.332;18.034;2023-08-30T03:02:02;9.40;;;4.90;;
18820;SDS011;9539;59.332;18.034;2023-08-30T03:04:24;9.65;;;5.07;;
18820;SDS011;9539;59.332;18.034;2023-08-30T03:06:46;7.82;;;4.88;;
18820;SDS011;9539;59.332;18.034;2023-08-30T03:09:09;8.40;;;5.03;;
18820;SDS011;9539;59.332;18.034;2023-08-30T03:11:32;6.13;;;4.45;;
18820;SDS011;9539;59.332;18.034;2023-08-30T03:13:54;9.18;;;4.90;;
18820;SDS011;9539;59.332;18.034;2023-08-30T03:16:16;7.70;;;5.20;;
18820;SDS011;9539;59.332;18.034;2023-08-30T03:18:38;7.65;;;4.30;;
18820;SDS011;9539;59.332;18.034;2023-08-30T03:21:01;6.63;;;4.70;;
18820;SDS011;9539;59.332;18.034;2023-08-30T03:23:23;7.93;;;5.00;;
18820;SDS011;9539;59.332;18.034;2023-08-30T03:25:46;11.15;;;4.80;;
18820;SDS011;9539;59.332;18.034;2023-08-30T03:28:08;9.73;;;4.90;;
18820;SDS011;9539;59.332;18.034;2023-08-30T03:30:30;8.85;;;4.75;;
18820;SDS011;9539;59.332;18.034;2023-08-30T03:32:52;7.18;;;4.13;;
18820;SDS011;9539;59.332;18.034;2023-08-30T03:35:14;10.35;;;4.93;;
18820;SDS011;9539;59.332;18.034;2023-08-30T03:37:37;8.68;;;4.78;;
18820;SDS011;9539;59.332;18.034;2023-08-30T03:39:59;7.53;;;5.07;;
18820;SDS011;9539;59.332;18.034;2023-08-30T03:42:22;7.57;;;4.55;;
18820;SDS011;9539;59.332;18.034;2023-08-30T03:44:44;8.10;;;4.60;;
18820;SDS011;9539;59.332;18.034;2023-08-30T03:47:06;8.75;;;5.10;;
18820;SDS011;9539;59.332;18.034;2023-08-30T03:49:28;7.53;;;5.00;;
18820;SDS011;9539;59.332;18.034;2023-08-30T03:51:50;7.93;;;4.20;;
18820;SDS011;9539;59.332;18.034;2023-08-30T03:54:12;7.95;;;5.00;;
18820;SDS011;9539;59.332;18.034;2023-08-30T03:56:36;6.60;;;4.47;;
18820;SDS011;9539;59.332;18.034;2023-08-30T03:58:59;7.43;;;5.10;;
18820;SDS011;9539;59.332;18.034;2023-08-30T04:01:21;8.98;;;4.60;;
18820;SDS011;9539;59.332;18.034;2023-08-30T04:03:43;10.38;;;4.70;;
18820;SDS011;9539;59.332;18.034;2023-08-30T04:06:05;8.68;;;4.88;;
18820;SDS011;9539;59.332;18.034;2023-08-30T04:08:27;7.00;;;5.18;;
18820;SDS011;9539;59.332;18.034;2023-08-30T04:10:51;9.85;;;5.35;;
18820;SDS011;9539;59.332;18.034;2023-08-30T04:13:13;8.63;;;5.10;;
18820;SDS011;9539;59.332;18.034;2023-08-30T04:15:37;8.88;;;4.88;;
18820;SDS011;9539;59.332;18.034;2023-08-30T04:18:00;6.50;;;4.88;;
18820;SDS011;9539;59.332;18.034;2023-08-30T04:20:22;9.52;;;5.30;;
18820;SDS011;9539;59.332;18.034;2023-08-30T04:22:44;6.45;;;4.70;;
18820;SDS011;9539;59.332;18.034;2023-08-30T04:25:06;8.10;;;5.03;;
18820;SDS011;9539;59.332;18.034;2023-08-30T04:27:29;11.07;;;4.88;;
18820;SDS011;9539;59.332;18.034;2023-08-30T04:29:51;6.13;;;4.20;;
18820;SDS011;9539;59.332;18.034;2023-08-30T04:32:15;7.55;;;4.30;;
18820;SDS011;9539;59.332;18.034;2023-08-30T04:34:37;8.05;;;4.25;;
18820;SDS011;9539;59.332;18.034;2023-08-30T04:36:59;8.98;;;4.03;;
18820;SDS011;9539;59.332;18.034;2023-08-30T04:39:21;11.30;;;4.68;;
18820;SDS011;9539;59.332;18.034;2023-08-30T04:41:43;8.73;;;4.65;;
18820;SDS011;9539;59.332;18.034;2023-08-30T04:44:05;8.77;;;4.60;;
18820;SDS011;9539;59.332;18.034;2023-08-30T04:46:27;8.43;;;4.75;;
18820;SDS011;9539;59.332;18.034;2023-08-30T04:48:50;8.52;;;4.65;;
18820;SDS011;9539;59.332;18.034;2023-08-30T04:51:12;8.60;;;5.03;;
18820;SDS011;9539;59.332;18.034;2023-08-30T04:53:34;9.27;;;4.63;;
18820;SDS011;9539;59.332;18.034;2023-08-30T04:55:56;6.65;;;4.80;;
18820;SDS011;9539;59.332;18.034;2023-08-30T04:58:18;6.60;;;4.20;;
18820;SDS011;9539;59.332;18.034;2023-08-30T05:00:39;9.30;;;4.88;;
18820;SDS011;9539;59.332;18.034;2023-08-30T05:03:02;6.78;;;4.60;;
18820;SDS011;9539;59.332;18.034;2023-08-30T05:05:25;8.35;;;4.45;;
18820;SDS011;9539;59.332;18.034;2023-08-30T05:07:47;6.47;;;4.30;;
18820;SDS011;9539;59.332;18.034;2023-08-30T05:10:09;7.72;;;4.20;;
18820;SDS011;9539;59.332;18.034;2023-08-30T05:12:33;7.10;;;4.70;;
18820;SDS011;9539;59.332;18.034;2023-08-30T05:14:55;7.10;;;3.75;;
18820;SDS011;9539;59.332;18.034;2023-08-30T05:17:17;3.95;;;3.45;;
18820;SDS011;9539;59.332;18.034;2023-08-30T05:19:39;7.40;;;4.10;;
18820;SDS011;9539;59.332;18.034;2023-08-30T05:22:02;5.72;;;4.10;;
18820;SDS011;9539;59.332;18.034;2023-08-30T05:24:25;7.03;;;4.30;;
18820;SDS011;9539;59.332;18.034;2023-08-30T05:26:48;6.10;;;4.18;;
18820;SDS011;9539;59.332;18.034;2023-08-30T05:29:10;6.68;;;3.90;;
18820;SDS011;9539;59.332;18.034;2023-08-30T05:31:32;9.05;;;4.70;;
18820;SDS011;9539;59.332;18.034;2023-08-30T05:33:54;5.53;;;3.95;;
18820;SDS011;9539;59.332;18.034;2023-08-30T05:36:16;10.75;;;4.75;;
18820;SDS011;9539;59.332;18.034;2023-08-30T05:38:40;5.32;;;4.72;;
18820;SDS011;9539;59.332;18.034;2023-08-30T05:41:02;6.20;;;4.28;;
18820;SDS011;9539;59.332;18.034;2023-08-30T05:43:24;7.43;;;4.85;;
18820;SDS011;9539;59.332;18.034;2023-08-30T05:45:46;7.53;;;4.85;;
18820;SDS011;9539;59.332;18.034;2023-08-30T05:48:09;7.55;;;4.68;;
18820;SDS011;9539;59.332;18.034;2023-08-30T05:50:31;10.38;;;6.88;;
18820;SDS011;9539;59.332;18.034;2023-08-30T05:52:53;9.85;;;5.18;;
18820;SDS011;9539;59.332;18.034;2023-08-30T05:55:16;9.52;;;5.78;;
18820;SDS011;9539;59.332;18.034;2023-08-30T05:57:38;6.97;;;4.60;;
18820;SDS011;9539;59.332;18.034;2023-08-30T06:00:00;6.38;;;4.90;;
18820;SDS011;9539;59.332;18.034;2023-08-30T06:02:22;7.60;;;4.85;;
18820;SDS011;9539;59.332;18.034;2023-08-30T06:04:44;7.15;;;4.65;;
18820;SDS011;9539;59.332;18.034;2023-08-30T06:07:06;8.10;;;4.68;;
18820;SDS011;9539;59.332;18.034;2023-08-30T06:09:28;9.43;;;4.40;;
18820;SDS011;9539;59.332;18.034;2023-08-30T06:11:51;7.53;;;4.72;;
18820;SDS011;9539;59.332;18.034;2023-08-30T06:14:13;10.82;;;4.82;;
18820;SDS011;9539;59.332;18.034;2023-08-30T06:16:35;6.95;;;4.75;;
18820;SDS011;9539;59.332;18.034;2023-08-30T06:18:57;6.78;;;4.45;;
18820;SDS011;9539;59.332;18.034;2023-08-30T06:21:19;8.70;;;4.78;;
18820;SDS011;9539;59.332;18.034;2023-08-30T06:23:41;7.05;;;3.70;;
18820;SDS011;9539;59.332;18.034;2023-08-30T06:26:03;4.85;;;3.45;;
18820;SDS011;9539;59.332;18.034;2023-08-30T06:28:26;9.32;;;3.63;;
18820;SDS011;9539;59.332;18.034;2023-08-30T06:30:48;5.30;;;3.38;;
18820;SDS011;9539;59.332;18.034;2023-08-30T06:33:10;5.90;;;3.60;;
18820;SDS011;9539;59.332;18.034;2023-08-30T06:35:35;4.88;;;3.85;;
18820;SDS011;9539;59.332;18.034;2023-08-30T06:37:59;7.38;;;4.32;;
18820;SDS011;9539;59.332;18.034;2023-08-30T06:40:21;7.57;;;4.22;;
18820;SDS011;9539;59.332;18.034;2023-08-30T06:42:43;7.38;;;4.20;;
18820;SDS011;9539;59.332;18.034;2023-08-30T06:45:06;7.57;;;4.30;;
18820;SDS011;9539;59.332;18.034;2023-08-30T06:47:29;12.52;;;4.50;;
18820;SDS011;9539;59.332;18.034;2023-08-30T06:49:51;9.23;;;3.83;;
18820;SDS011;9539;59.332;18.034;2023-08-30T06:52:13;5.60;;;3.90;;
18820;SDS011;9539;59.332;18.034;2023-08-30T06:54:35;7.07;;;4.05;;
18820;SDS011;9539;59.332;18.034;2023-08-30T06:56:57;8.25;;;4.22;;
18820;SDS011;9539;59.332;18.034;2023-08-30T06:59:19;6.05;;;4.10;;
18820;SDS011;9539;59.332;18.034;2023-08-30T07:01:43;5.78;;;3.80;;
18820;SDS011;9539;59.332;18.034;2023-08-30T07:04:05;6.68;;;3.60;;
18820;SDS011;9539;59.332;18.034;2023-08-30T07:06:27;5.68;;;3.78;;
18820;SDS011;9539;59.332;18.034;2023-08-30T07:08:51;7.20;;;3.90;;
18820;SDS011;9539;59.332;18.034;2023-08-30T07:11:13;4.97;;;3.75;;
18820;SDS011;9539;59.332;18.034;2023-08-30T07:13:34;5.55;;;3.55;;
18820;SDS011;9539;59.332;18.034;2023-08-30T07:15:56;5.07;;;3.55;;
18820;SDS011;9539;59.332;18.034;2023-08-30T07:18:20;7.00;;;3.88;;
18820;SDS011;9539;59.332;18.034;2023-08-30T07:20:41;8.23;;;3.40;;
18820;SDS011;9539;59.332;18.034;2023-08-30T07:23:04;5.15;;;4.07;;
18820;SDS011;9539;59.332;18.034;2023-08-30T07:25:26;10.75;;;3.80;;
18820;SDS011;9539;59.332;18.034;2023-08-30T07:27:48;5.93;;;3.50;;
18820;SDS011;9539;59.332;18.034;2023-08-30T07:30:10;4.93;;;3.80;;
18820;SDS011;9539;59.332;18.034;2023-08-30T07:32:32;6.38;;;3.30;;
18820;SDS011;9539;59.332;18.034;2023-08-30T07:34:57;3.42;;;3.00;;
18820;SDS011;9539;59.332;18.034;2023-08-30T07:37:19;4.22;;;3.25;;
18820;SDS011;9539;59.332;18.034;2023-08-30T07:39:42;6.18;;;2.75;;
18820;SDS011;9539;59.332;18.034;2023-08-30T07:42:04;4.72;;;3.03;;
18820;SDS011;9539;59.332;18.034;2023-08-30T07:44:27;5.30;;;3.10;;
18820;SDS011;9539;59.332;18.034;2023-08-30T07:46:49;3.47;;;2.53;;
18820;SDS011;9539;59.332;18.034;2023-08-30T07:49:10;5.18;;;3.33;;
18820;SDS011;9539;59.332;18.034;2023-08-30T07:51:34;5.32;;;2.92;;
18820;SDS011;9539;59.332;18.034;2023-08-30T07:54:08;6.90;;;3.00;;
18820;SDS011;9539;59.332;18.034;2023-08-30T07:56:32;7.07;;;3.10;;
18820;SDS011;9539;59.332;18.034;2023-08-30T07:58:54;3.58;;;2.45;;
18820;SDS011;9539;59.332;18.034;2023-08-30T08:01:16;3.55;;;2.65;;
18820;SDS011;9539;59.332;18.034;2023-08-30T08:03:38;5.70;;;3.10;;
18820;SDS011;9539;59.332;18.034;2023-08-30T08:06:01;3.90;;;2.60;;
18820;SDS011;9539;59.332;18.034;2023-08-30T08:08:25;6.50;;;2.50;;
18820;SDS011;9539;59.332;18.034;2023-08-30T08:10:46;4.22;;;2.55;;
18820;SDS011;9539;59.332;18.034;2023-08-30T08:13:08;3.38;;;2.40;;
18820;SDS011;9539;59.332;18.034;2023-08-30T08:15:30;2.78;;;2.05;;
18820;SDS011;9539;59.332;18.034;2023-08-30T08:17:52;3.90;;;2.33;;
18820;SDS011;9539;59.332;18.034;2023-08-30T08:20:14;4.15;;;2.03;;
18820;SDS011;9539;59.332;18.034;2023-08-30T08:22:36;4.97;;;2.40;;
18820;SDS011;9539;59.332;18.034;2023-08-30T08:25:00;4.57;;;1.95;;
18820;SDS011;9539;59.332;18.034;2023-08-30T08:27:22;2.47;;;2.08;;
18820;SDS011;9539;59.332;18.034;2023-08-30T08:29:45;3.00;;;2.17;;
18820;SDS011;9539;59.332;18.034;2023-08-30T08:32:07;5.47;;;2.20;;
18820;SDS011;9539;59.332;18.034;2023-08-30T08:34:29;5.68;;;3.03;;
18820;SDS011;9539;59.332;18.034;2023-08-30T08:36:51;4.05;;;2.50;;
18820;SDS011;9539;59.332;18.034;2023-08-30T08:39:13;5.75;;;2.40;;
18820;SDS011;9539;59.332;18.034;2023-08-30T08:41:38;4.68;;;2.50;;
18820;SDS011;9539;59.332;18.034;2023-08-30T08:44:01;3.53;;;2.33;;
18820;SDS011;9539;59.332;18.034;2023-08-30T08:46:26;4.63;;;2.20;;
18820;SDS011;9539;59.332;18.034;2023-08-30T08:48:52;3.35;;;2.30;;
18820;SDS011;9539;59.332;18.034;2023-08-30T08:51:17;3.05;;;1.90;;
18820;SDS011;9539;59.332;18.034;2023-08-30T08:53:40;4.88;;;2.50;;
18820;SDS011;9539;59.332;18.034;2023-08-30T08:56:03;3.40;;;1.98;;
18820;SDS011;9539;59.332;18.034;2023-08-30T08:58:29;3.47;;;2.15;;
18820;SDS011;9539;59.332;18.034;2023-08-30T09:00:52;3.35;;;1.92;;
18820;SDS011;9539;59.332;18.034;2023-08-30T09:03:15;4.13;;;2.15;;
18820;SDS011;9539;59.332;18.034;2023-08-30T09:05:39;2.72;;;2.00;;
18820;SDS011;9539;59.332;18.034;2023-08-30T09:08:02;2.53;;;2.00;;
18820;SDS011;9539;59.332;18.034;2023-08-30T09:10:24;3.13;;;1.85;;
18820;SDS011;9539;59.332;18.034;2023-08-30T09:12:46;2.95;;;2.20;;
18820;SDS011;9539;59.332;18.034;2023-08-30T09:15:10;4.72;;;2.00;;
18820;SDS011;9539;59.332;18.034;2023-08-30T09:17:35;3.47;;;2.15;;
18820;SDS011;9539;59.332;18.034;2023-08-30T09:20:04;4.65;;;2.17;;
18820;SDS011;9539;59.332;18.034;2023-08-30T09:22:35;4.65;;;2.40;;
18820;SDS011;9539;59.332;18.034;2023-08-30T09:24:57;3.45;;;2.40;;
18820;SDS011;9539;59.332;18.034;2023-08-30T09:27:19;6.28;;;2.55;;
18820;SDS011;9539;59.332;18.034;2023-08-30T09:29:41;5.93;;;2.35;;
18820;SDS011;9539;59.332;18.034;2023-08-30T09:32:07;4.88;;;2.13;;
18820;SDS011;9539;59.332;18.034;2023-08-30T09:34:29;2.65;;;2.20;;
18820;SDS011;9539;59.332;18.034;2023-08-30T09:36:51;3.75;;;2.28;;
18820;SDS011;9539;59.332;18.034;2023-08-30T09:39:14;4.30;;;2.28;;
18820;SDS011;9539;59.332;18.034;2023-08-30T09:41:36;3.08;;;2.30;;
18820;SDS011;9539;59.332;18.034;2023-08-30T09:43:58;3.90;;;1.95;;
18820;SDS011;9539;59.332;18.034;2023-08-30T09:46:20;5.13;;;2.08;;
18820;SDS011;9539;59.332;18.034;2023-08-30T09:48:45;4.32;;;2.30;;
18820;SDS011;9539;59.332;18.034;2023-08-30T09:51:07;4.95;;;2.22;;
18820;SDS011;9539;59.332;18.034;2023-08-30T09:53:30;2.30;;;2.10;;
18820;SDS011;9539;59.332;18.034;2023-08-30T09:55:58;3.35;;;2.00;;
18820;SDS011;9539;59.332;18.034;2023-08-30T09:58:21;3.65;;;2.08;;
18820;SDS011;9539;59.332;18.034;2023-08-30T10:00:45;3.90;;;2.10;;
18820;SDS011;9539;59.332;18.034;2023-08-30T10:03:07;3.00;;;2.03;;
18820;SDS011;9539;59.332;18.034;2023-08-30T10:05:31;4.47;;;2.40;;
18820;SDS011;9539;59.332;18.034;2023-08-30T10:07:55;3.35;;;1.88;;
18820;SDS011;9539;59.332;18.034;2023-08-30T10:10:17;2.63;;;1.98;;
18820;SDS011;9539;59.332;18.034;2023-08-30T10:12:40;3.15;;;1.90;;
18820;SDS011;9539;59.332;18.034;2023-08-30T10:15:05;3.60;;;2.20;;
18820;SDS011;9539;59.332;18.034;2023-08-30T10:17:27;3.15;;;2.00;;
18820;SDS011;9539;59.332;18.034;2023-08-30T10:19:52;3.35;;;2.33;;
18820;SDS011;9539;59.332;18.034;2023-08-30T10:22:17;4.63;;;2.55;;
18820;SDS011;9539;59.332;18.034;2023-08-30T10:24:41;3.75;;;2.70;;
18820;SDS011;9539;59.332;18.034;2023-08-30T10:27:08;5.65;;;3.10;;
18820;SDS011;9539;59.332;18.034;2023-08-30T10:29:31;7.78;;;2.85;;
18820;SDS011;9539;59.332;18.034;2023-08-30T10:31:55;2.28;;;2.08;;
18820;SDS011;9539;59.332;18.034;2023-08-30T10:34:17;2.85;;;2.20;;
18820;SDS011;9539;59.332;18.034;2023-08-30T10:36:39;5.03;;;2.20;;
18820;SDS011;9539;59.332;18.034;2023-08-30T10:39:03;3.05;;;2.30;;
18820;SDS011;9539;59.332;18.034;2023-08-30T10:41:33;1.88;;;1.77;;
18820;SDS011;9539;59.332;18.034;2023-08-30T10:43:55;3.13;;;2.05;;
18820;SDS011;9539;59.332;18.034;2023-08-30T10:46:28;3.05;;;1.77;;
18820;SDS011;9539;59.332;18.034;2023-08-30T10:48:51;2.33;;;1.90;;
18820;SDS011;9539;59.332;18.034;2023-08-30T10:51:19;3.70;;;2.38;;
18820;SDS011;9539;59.332;18.034;2023-08-30T10:53:42;4.40;;;2.08;;
18820;SDS011;9539;59.332;18.034;2023-08-30T10:56:12;3.08;;;1.95;;
18820;SDS011;9539;59.332;18.034;2023-08-30T10:58:43;1.83;;;1.73;;
18820;SDS011;9539;59.332;18.034;2023-08-30T11:01:05;3.97;;;1.90;;
18820;SDS011;9539;59.332;18.034;2023-08-30T11:03:30;3.08;;;1.92;;
18820;SDS011;9539;59.332;18.034;2023-08-30T11:05:53;6.20;;;3.30;;
18820;SDS011;9539;59.332;18.034;2023-08-30T11:08:21;3.63;;;2.28;;
18820;SDS011;9539;59.332;18.034;2023-08-30T11:10:43;2.58;;;1.85;;
18820;SDS011;9539;59.332;18.034;2023-08-30T11:13:08;2.92;;;1.83;;
18820;SDS011;9539;59.332;18.034;2023-08-30T11:15:30;1.73;;;1.60;;
18820;SDS011;9539;59.332;18.034;2023-08-30T11:17:52;1.98;;;1.70;;
18820;SDS011;9539;59.332;18.034;2023-08-30T11:20:24;2.28;;;1.70;;
18820;SDS011;9539;59.332;18.034;2023-08-30T11:22:46;6.30;;;1.70;;
18820;SDS011;9539;59.332;18.034;2023-08-30T11:25:10;4.32;;;1.77;;
18820;SDS011;9539;59.332;18.034;2023-08-30T11:27:32;4.80;;;2.10;;
18820;SDS011;9539;59.332;18.034;2023-08-30T11:29:59;4.28;;;2.00;;
18820;SDS011;9539;59.332;18.034;2023-08-30T11:32:23;3.38;;;2.08;;
18820;SDS011;9539;59.332;18.034;2023-08-30T11:34:50;6.10;;;2.72;;
18820;SDS011;9539;59.332;18.034;2023-08-30T11:37:17;5.00;;;2.47;;
18820;SDS011;9539;59.332;18.034;2023-08-30T11:39:39;3.47;;;2.13;;
18820;SDS011;9539;59.332;18.034;2023-08-30T11:42:02;4.97;;;2.63;;
18820;SDS011;9539;59.332;18.034;2023-08-30T11:44:28;5.55;;;2.33;;
18820;SDS011;9539;59.332;18.034;2023-08-30T11:46:58;2.90;;;1.88;;
18820;SDS011;9539;59.332;18.034;2023-08-30T11:49:20;2.95;;;2.20;;
18820;SDS011;9539;59.332;18.034;2023-08-30T11:51:42;3.15;;;2.00;;
18820;SDS011;9539;59.332;18.034;2023-08-30T11:54:04;4.38;;;2.00;;
18820;SDS011;9539;59.332;18.034;2023-08-30T11:56:28;5.55;;;2.10;;
18820;SDS011;9539;59.332;18.034;2023-08-30T11:58:51;6.07;;;2.40;;
18820;SDS011;9539;59.332;18.034;2023-08-30T12:01:12;3.63;;;1.77;;
18820;SDS011;9539;59.332;18.034;2023-08-30T12:03:37;4.68;;;2.10;;
18820;SDS011;9539;59.332;18.034;2023-08-30T12:05:59;2.85;;;2.08;;
18820;SDS011;9539;59.332;18.034;2023-08-30T12:08:23;6.18;;;2.10;;
18820;SDS011;9539;59.332;18.034;2023-08-30T12:10:46;3.83;;;1.85;;
18820;SDS011;9539;59.332;18.034;2023-08-30T12:13:18;3.33;;;2.20;;
18820;SDS011;9539;59.332;18.034;2023-08-30T12:15:41;5.15;;;2.40;;
18820;SDS011;9539;59.332;18.034;2023-08-30T12:18:07;6.47;;;2.10;;
18820;SDS011;9539;59.332;18.034;2023-08-30T12:20:30;3.80;;;1.80;;
18820;SDS011;9539;59.332;18.034;2023-08-30T12:22:52;7.47;;;1.70;;
18820;SDS011;9539;59.332;18.034;2023-08-30T12:25:18;2.22;;;1.70;;
18820;SDS011;9539;59.332;18.034;2023-08-30T12:27:40;2.67;;;1.73;;
18820;SDS011;9539;59.332;18.034;2023-08-30T12:30:01;4.47;;;1.90;;
18820;SDS011;9539;59.332;18.034;2023-08-30T12:32:23;2.72;;;1.92;;
18820;SDS011;9539;59.332;18.034;2023-08-30T12:34:45;1.92;;;1.70;;
18820;SDS011;9539;59.332;18.034;2023-08-30T12:37:09;3.10;;;1.73;;
18820;SDS011;9539;59.332;18.034;2023-08-30T12:39:30;3.05;;;1.90;;
18820;SDS011;9539;59.332;18.034;2023-08-30T12:41:52;5.65;;;1.92;;
18820;SDS011;9539;59.332;18.034;2023-08-30T12:44:14;5.05;;;2.05;;
18820;SDS011;9539;59.332;18.034;2023-08-30T12:46:36;3.22;;;2.45;;
18820;SDS011;9539;59.332;18.034;2023-08-30T12:48:58;5.60;;;1.92;;
18820;SDS011;9539;59.332;18.034;2023-08-30T12:51:20;2.90;;;1.83;;
18820;SDS011;9539;59.332;18.034;2023-08-30T12:53:43;3.83;;;2.10;;
18820;SDS011;9539;59.332;18.034;2023-08-30T12:56:06;4.72;;;1.85;;
18820;SDS011;9539;59.332;18.034;2023-08-30T12:58:28;5.85;;;1.90;;
18820;SDS011;9539;59.332;18.034;2023-08-30T13:00:49;4.50;;;1.70;;
18820;SDS011;9539;59.332;18.034;2023-08-30T13:03:11;2.47;;;1.90;;
18820;SDS011;9539;59.332;18.034;2023-08-30T13:05:33;2.03;;;1.88;;
18820;SDS011;9539;59.332;18.034;2023-08-30T13:07:56;2.50;;;1.60;;
18820;SDS011;9539;59.332;18.034;2023-08-30T13:10:19;2.85;;;1.48;;
18820;SDS011;9539;59.332;18.034;2023-08-30T13:12:41;1.65;;;1.42;;
18820;SDS011;9539;59.332;18.034;2023-08-30T13:15:06;2.25;;;1.77;;
18820;SDS011;9539;59.332;18.034;2023-08-30T13:17:29;3.38;;;1.70;;
18820;SDS011;9539;59.332;18.034;2023-08-30T13:19:51;3.28;;;1.85;;
18820;SDS011;9539;59.332;18.034;2023-08-30T13:22:13;1.83;;;1.60;;
18820;SDS011;9539;59.332;18.034;2023-08-30T13:24:35;2.95;;;1.80;;
18820;SDS011;9539;59.332;18.034;2023-08-30T13:26:58;2.80;;;1.88;;
18820;SDS011;9539;59.332;18.034;2023-08-30T13:29:20;2.92;;;1.85;;
18820;SDS011;9539;59.332;18.034;2023-08-30T13:31:42;1.80;;;1.70;;
18820;SDS011;9539;59.332;18.034;2023-08-30T13:34:04;3.78;;;1.92;;
18820;SDS011;9539;59.332;18.034;2023-08-30T13:36:26;3.42;;;1.70;;
18820;SDS011;9539;59.332;18.034;2023-08-30T13:38:48;3.08;;;1.52;;
18820;SDS011;9539;59.332;18.034;2023-08-30T13:41:10;2.83;;;1.38;;
18820;SDS011;9539;59.332;18.034;2023-08-30T13:43:33;1.45;;;1.35;;
18820;SDS011;9539;59.332;18.034;2023-08-30T13:45:58;3.15;;;1.58;;
18820;SDS011;9539;59.332;18.034;2023-08-30T13:48:21;2.78;;;1.60;;
18820;SDS011;9539;59.332;18.034;2023-08-30T13:50:43;1.77;;;1.65;;
18820;SDS011;9539;59.332;18.034;2023-08-30T13:53:06;2.28;;;1.27;;
18820;SDS011;9539;59.332;18.034;2023-08-30T13:55:28;1.75;;;1.30;;
18820;SDS011;9539;59.332;18.034;2023-08-30T13:57:51;2.95;;;1.40;;
18820;SDS011;9539;59.332;18.034;2023-08-30T14:00:15;2.10;;;1.40;;
18820;SDS011;9539;59.332;18.034;2023-08-30T14:02:37;4.57;;;1.60;;
18820;SDS011;9539;59.332;18.034;2023-08-30T14:04:59;3.63;;;1.50;;
18820;SDS011;9539;59.332;18.034;2023-08-30T14:07:21;1.40;;;1.30;;
18820;SDS011;9539;59.332;18.034;2023-08-30T14:09:43;1.98;;;1.40;;
18820;SDS011;9539;59.332;18.034;2023-08-30T14:12:05;2.83;;;1.38;;
18820;SDS011;9539;59.332;18.034;2023-08-30T14:14:28;2.47;;;1.30;;
18820;SDS011;9539;59.332;18.034;2023-08-30T14:16:51;4.80;;;1.80;;
18820;SDS011;9539;59.332;18.034;2023-08-30T14:19:14;4.85;;;1.90;;